Portada
METAR-TAF:

METAR-TAF

Aeropuertos :

Wanaham

Lifou, Nueva Caledonia

latitud: 20-46S, longitud: 167-14E, altitud: 28 m

METAR: falta

Hora: 23:21 (12:21 UTC)

Pronóstico

El informe se hizo hace 1 hora y 21 minutos, a las 11:00 UTC
Pronóstico válido del 02 a las 12 UTC al 03 a las 12 UTC
Viento 5 kt del este
Visibilidad 10 km o más
Nubes dispersas a una altura de 900 ft
Cielo nuboso a una altura de 4000 ft
Probabilidad 40% :
Temporalmente
del 02 a las 12 UTC al 02 a las 20 UTC
Visibilidad: 0800 m
Cielo nuboso a una altura de 800 ft
niebla en bancos

TAF: NWWL 021100Z 0212/0312 10005KT 9999 SCT009 BKN040 PROB40 TEMPO 0212/0220 0800 BCFG BKN008

Observaciones y pronósticos meteorológicos de más de 4000 aeropuertos (mensajes METAR y TAF).

Los puntos amarillos y rojos representan las estaciones disponibles.

Ponga el ratón en el punto deseado para ver el nombre de la estación.

Haga clic para ver las observaciones y los pronósticos meteorológicos.

Para cambiar el mapa : haga clic en los botones verdes con una cruz de color negro para hacer un zoom, en el botón verde con un guión para alejar o en las flechas verdes para mapas adyacentes.


METAR-TAF: